sensor_id;sensor_type;location;lat;lon;timestamp;P1;durP1;ratioP1;P2;durP2;ratioP2
27895;SDS011;15241;48.374;10.876;2023-07-22T00:00:45;3.45;;;2.08;;
27895;SDS011;15241;48.374;10.876;2023-07-22T00:06:04;5.45;;;2.05;;
27895;SDS011;15241;48.374;10.876;2023-07-22T00:11:22;4.05;;;1.95;;
27895;SDS011;15241;48.374;10.876;2023-07-22T00:16:40;2.08;;;1.77;;
27895;SDS011;15241;48.374;10.876;2023-07-22T00:21:57;4.75;;;1.87;;
27895;SDS011;15241;48.374;10.876;2023-07-22T00:27:15;2.85;;;2.12;;
27895;SDS011;15241;48.374;10.876;2023-07-22T00:32:33;2.42;;;2.00;;
27895;SDS011;15241;48.374;10.876;2023-07-22T00:37:51;3.62;;;1.85;;
27895;SDS011;15241;48.374;10.876;2023-07-22T00:43:08;3.50;;;2.02;;
27895;SDS011;15241;48.374;10.876;2023-07-22T00:48:25;2.77;;;2.10;;
27895;SDS011;15241;48.374;10.876;2023-07-22T00:53:44;2.33;;;2.12;;
27895;SDS011;15241;48.374;10.876;2023-07-22T00:59:01;2.50;;;2.17;;
27895;SDS011;15241;48.374;10.876;2023-07-22T01:04:20;5.10;;;2.40;;
27895;SDS011;15241;48.374;10.876;2023-07-22T01:09:38;2.67;;;2.12;;
27895;SDS011;15241;48.374;10.876;2023-07-22T01:14:56;4.28;;;2.70;;
27895;SDS011;15241;48.374;10.876;2023-07-22T01:20:14;3.60;;;2.10;;
27895;SDS011;15241;48.374;10.876;2023-07-22T01:25:32;6.62;;;3.08;;
27895;SDS011;15241;48.374;10.876;2023-07-22T01:30:50;4.90;;;2.50;;
27895;SDS011;15241;48.374;10.876;2023-07-22T01:36:09;6.50;;;2.58;;
27895;SDS011;15241;48.374;10.876;2023-07-22T01:41:26;3.52;;;2.35;;
27895;SDS011;15241;48.374;10.876;2023-07-22T01:46:43;5.25;;;2.95;;
27895;SDS011;15241;48.374;10.876;2023-07-22T01:52:01;5.15;;;2.50;;
27895;SDS011;15241;48.374;10.876;2023-07-22T01:57:19;5.30;;;2.80;;
27895;SDS011;15241;48.374;10.876;2023-07-22T02:02:36;5.15;;;2.85;;
27895;SDS011;15241;48.374;10.876;2023-07-22T02:07:54;3.22;;;2.25;;
27895;SDS011;15241;48.374;10.876;2023-07-22T02:13:12;6.00;;;2.77;;
27895;SDS011;15241;48.374;10.876;2023-07-22T02:18:29;3.72;;;3.27;;
27895;SDS011;15241;48.374;10.876;2023-07-22T02:23:47;4.78;;;2.33;;
27895;SDS011;15241;48.374;10.876;2023-07-22T02:29:04;3.12;;;2.45;;
27895;SDS011;15241;48.374;10.876;2023-07-22T02:34:22;3.60;;;2.60;;
27895;SDS011;15241;48.374;10.876;2023-07-22T02:39:40;6.85;;;2.87;;
27895;SDS011;15241;48.374;10.876;2023-07-22T02:44:57;4.67;;;3.12;;
27895;SDS011;15241;48.374;10.876;2023-07-22T02:50:15;4.58;;;2.60;;
27895;SDS011;15241;48.374;10.876;2023-07-22T02:55:34;5.42;;;3.30;;
27895;SDS011;15241;48.374;10.876;2023-07-22T03:00:51;6.40;;;3.60;;
27895;SDS011;15241;48.374;10.876;2023-07-22T03:06:08;4.47;;;3.22;;
27895;SDS011;15241;48.374;10.876;2023-07-22T03:11:26;5.37;;;3.15;;
27895;SDS011;15241;48.374;10.876;2023-07-22T03:16:43;3.83;;;3.37;;
27895;SDS011;15241;48.374;10.876;2023-07-22T03:22:01;4.75;;;3.62;;
27895;SDS011;15241;48.374;10.876;2023-07-22T03:27:19;6.15;;;3.83;;
27895;SDS011;15241;48.374;10.876;2023-07-22T03:32:36;6.12;;;3.58;;
27895;SDS011;15241;48.374;10.876;2023-07-22T03:37:54;4.08;;;3.33;;
27895;SDS011;15241;48.374;10.876;2023-07-22T03:43:12;3.62;;;3.08;;
27895;SDS011;15241;48.374;10.876;2023-07-22T03:48:29;4.42;;;3.50;;
27895;SDS011;15241;48.374;10.876;2023-07-22T03:53:46;4.58;;;3.17;;
27895;SDS011;15241;48.374;10.876;2023-07-22T03:59:04;6.22;;;3.55;;
27895;SDS011;15241;48.374;10.876;2023-07-22T04:04:21;5.50;;;3.37;;
27895;SDS011;15241;48.374;10.876;2023-07-22T04:09:39;6.08;;;3.33;;
27895;SDS011;15241;48.374;10.876;2023-07-22T04:14:57;5.42;;;3.60;;
27895;SDS011;15241;48.374;10.876;2023-07-22T04:20:15;8.35;;;3.47;;
27895;SDS011;15241;48.374;10.876;2023-07-22T04:25:32;4.42;;;3.45;;
27895;SDS011;15241;48.374;10.876;2023-07-22T04:30:55;5.58;;;4.08;;
27895;SDS011;15241;48.374;10.876;2023-07-22T04:36:13;4.53;;;3.10;;
27895;SDS011;15241;48.374;10.876;2023-07-22T04:41:31;3.98;;;2.85;;
27895;SDS011;15241;48.374;10.876;2023-07-22T04:46:48;4.45;;;3.22;;
27895;SDS011;15241;48.374;10.876;2023-07-22T04:52:07;3.02;;;2.65;;
27895;SDS011;15241;48.374;10.876;2023-07-22T04:57:25;4.10;;;2.83;;
27895;SDS011;15241;48.374;10.876;2023-07-22T05:02:42;6.65;;;2.90;;
27895;SDS011;15241;48.374;10.876;2023-07-22T05:08:00;4.65;;;2.75;;
27895;SDS011;15241;48.374;10.876;2023-07-22T05:13:17;3.12;;;2.60;;
27895;SDS011;15241;48.374;10.876;2023-07-22T05:18:35;7.05;;;3.12;;
27895;SDS011;15241;48.374;10.876;2023-07-22T05:23:53;6.90;;;2.65;;
27895;SDS011;15241;48.374;10.876;2023-07-22T05:29:11;5.15;;;3.27;;
27895;SDS011;15241;48.374;10.876;2023-07-22T05:34:28;4.05;;;2.77;;
27895;SDS011;15241;48.374;10.876;2023-07-22T05:39:46;3.42;;;2.55;;
27895;SDS011;15241;48.374;10.876;2023-07-22T05:45:04;4.03;;;2.75;;
27895;SDS011;15241;48.374;10.876;2023-07-22T05:50:22;3.92;;;2.52;;
27895;SDS011;15241;48.374;10.876;2023-07-22T05:55:40;5.25;;;2.77;;
27895;SDS011;15241;48.374;10.876;2023-07-22T06:00:57;8.05;;;2.98;;
27895;SDS011;15241;48.374;10.876;2023-07-22T06:06:14;1.87;;;1.67;;
27895;SDS011;15241;48.374;10.876;2023-07-22T06:11:32;2.00;;;1.80;;
27895;SDS011;15241;48.374;10.876;2023-07-22T06:16:49;3.37;;;2.15;;
27895;SDS011;15241;48.374;10.876;2023-07-22T06:22:06;3.50;;;2.02;;
27895;SDS011;15241;48.374;10.876;2023-07-22T06:27:24;3.90;;;2.70;;
27895;SDS011;15241;48.374;10.876;2023-07-22T06:32:41;2.47;;;1.85;;
27895;SDS011;15241;48.374;10.876;2023-07-22T06:37:59;3.52;;;2.40;;
27895;SDS011;15241;48.374;10.876;2023-07-22T06:43:16;4.10;;;2.35;;
27895;SDS011;15241;48.374;10.876;2023-07-22T06:48:34;4.50;;;2.30;;
27895;SDS011;15241;48.374;10.876;2023-07-22T06:53:52;2.52;;;1.92;;
27895;SDS011;15241;48.374;10.876;2023-07-22T06:59:09;2.92;;;1.92;;
27895;SDS011;15241;48.374;10.876;2023-07-22T07:04:26;4.00;;;2.02;;
27895;SDS011;15241;48.374;10.876;2023-07-22T07:09:44;4.22;;;2.35;;
27895;SDS011;15241;48.374;10.876;2023-07-22T07:15:02;4.17;;;2.08;;
27895;SDS011;15241;48.374;10.876;2023-07-22T07:20:21;4.62;;;2.00;;
27895;SDS011;15241;48.374;10.876;2023-07-22T07:25:38;4.60;;;2.08;;
27895;SDS011;15241;48.374;10.876;2023-07-22T07:30:56;3.35;;;2.30;;
27895;SDS011;15241;48.374;10.876;2023-07-22T07:36:14;2.95;;;1.70;;
27895;SDS011;15241;48.374;10.876;2023-07-22T07:41:31;2.20;;;1.90;;
27895;SDS011;15241;48.374;10.876;2023-07-22T07:46:49;2.22;;;1.77;;
27895;SDS011;15241;48.374;10.876;2023-07-22T07:52:06;1.92;;;1.70;;
27895;SDS011;15241;48.374;10.876;2023-07-22T07:57:24;3.80;;;2.08;;
27895;SDS011;15241;48.374;10.876;2023-07-22T08:02:41;2.08;;;1.77;;
27895;SDS011;15241;48.374;10.876;2023-07-22T08:07:58;3.10;;;1.67;;
27895;SDS011;15241;48.374;10.876;2023-07-22T08:13:16;4.97;;;2.08;;
27895;SDS011;15241;48.374;10.876;2023-07-22T08:18:34;3.35;;;1.60;;
27895;SDS011;15241;48.374;10.876;2023-07-22T08:23:52;2.62;;;1.52;;
27895;SDS011;15241;48.374;10.876;2023-07-22T08:29:10;1.60;;;1.45;;
27895;SDS011;15241;48.374;10.876;2023-07-22T08:34:27;2.08;;;1.60;;
27895;SDS011;15241;48.374;10.876;2023-07-22T08:39:46;3.33;;;1.60;;
27895;SDS011;15241;48.374;10.876;2023-07-22T08:45:05;3.85;;;1.50;;
27895;SDS011;15241;48.374;10.876;2023-07-22T08:50:26;1.80;;;1.37;;
27895;SDS011;15241;48.374;10.876;2023-07-22T08:55:45;1.40;;;1.27;;
27895;SDS011;15241;48.374;10.876;2023-07-22T09:01:03;4.03;;;1.30;;
27895;SDS011;15241;48.374;10.876;2023-07-22T09:06:22;3.12;;;1.50;;
27895;SDS011;15241;48.374;10.876;2023-07-22T09:11:40;3.52;;;1.62;;
27895;SDS011;15241;48.374;10.876;2023-07-22T09:16:58;2.12;;;1.27;;
27895;SDS011;15241;48.374;10.876;2023-07-22T09:22:16;2.10;;;1.90;;
27895;SDS011;15241;48.374;10.876;2023-07-22T09:27:33;3.62;;;1.60;;
27895;SDS011;15241;48.374;10.876;2023-07-22T09:32:51;1.60;;;1.50;;
27895;SDS011;15241;48.374;10.876;2023-07-22T09:38:10;2.35;;;1.82;;
27895;SDS011;15241;48.374;10.876;2023-07-22T09:43:29;3.77;;;1.57;;
27895;SDS011;15241;48.374;10.876;2023-07-22T09:48:47;2.45;;;1.52;;
27895;SDS011;15241;48.374;10.876;2023-07-22T09:54:05;1.47;;;1.20;;
27895;SDS011;15241;48.374;10.876;2023-07-22T09:59:22;1.57;;;1.32;;
27895;SDS011;15241;48.374;10.876;2023-07-22T10:04:41;1.65;;;1.25;;
27895;SDS011;15241;48.374;10.876;2023-07-22T10:09:59;1.90;;;1.40;;
27895;SDS011;15241;48.374;10.876;2023-07-22T10:15:18;1.77;;;1.35;;
27895;SDS011;15241;48.374;10.876;2023-07-22T10:20:35;2.08;;;1.10;;
27895;SDS011;15241;48.374;10.876;2023-07-22T10:25:54;3.50;;;1.60;;
27895;SDS011;15241;48.374;10.876;2023-07-22T10:31:13;1.62;;;1.10;;
27895;SDS011;15241;48.374;10.876;2023-07-22T10:36:31;2.05;;;1.30;;
27895;SDS011;15241;48.374;10.876;2023-07-22T10:41:48;2.30;;;1.27;;
27895;SDS011;15241;48.374;10.876;2023-07-22T10:47:07;2.47;;;1.60;;
27895;SDS011;15241;48.374;10.876;2023-07-22T10:52:41;1.47;;;1.30;;
27895;SDS011;15241;48.374;10.876;2023-07-22T10:58:03;1.62;;;1.27;;
27895;SDS011;15241;48.374;10.876;2023-07-22T11:03:21;1.50;;;1.30;;
27895;SDS011;15241;48.374;10.876;2023-07-22T11:08:39;1.45;;;1.17;;
27895;SDS011;15241;48.374;10.876;2023-07-22T11:13:58;1.37;;;1.15;;
27895;SDS011;15241;48.374;10.876;2023-07-22T11:19:28;3.10;;;1.62;;
27895;SDS011;15241;48.374;10.876;2023-07-22T11:24:46;3.37;;;1.67;;
27895;SDS011;15241;48.374;10.876;2023-07-22T11:30:04;2.62;;;1.30;;
27895;SDS011;15241;48.374;10.876;2023-07-22T11:35:23;1.42;;;1.10;;
27895;SDS011;15241;48.374;10.876;2023-07-22T11:40:42;1.20;;;1.10;;
27895;SDS011;15241;48.374;10.876;2023-07-22T11:46:00;2.67;;;1.40;;
27895;SDS011;15241;48.374;10.876;2023-07-22T11:51:20;2.60;;;1.40;;
27895;SDS011;15241;48.374;10.876;2023-07-22T11:56:38;1.90;;;1.32;;
27895;SDS011;15241;48.374;10.876;2023-07-22T12:01:56;2.65;;;1.32;;
27895;SDS011;15241;48.374;10.876;2023-07-22T12:07:22;2.95;;;1.62;;
27895;SDS011;15241;48.374;10.876;2023-07-22T12:12:41;3.05;;;1.50;;
27895;SDS011;15241;48.374;10.876;2023-07-22T12:18:00;2.10;;;1.52;;
27895;SDS011;15241;48.374;10.876;2023-07-22T12:23:17;1.87;;;1.72;;
27895;SDS011;15241;48.374;10.876;2023-07-22T12:28:35;1.75;;;1.50;;
27895;SDS011;15241;48.374;10.876;2023-07-22T12:33:52;2.05;;;1.80;;
27895;SDS011;15241;48.374;10.876;2023-07-22T12:39:10;1.67;;;1.50;;
27895;SDS011;15241;48.374;10.876;2023-07-22T12:44:27;1.75;;;1.52;;
27895;SDS011;15241;48.374;10.876;2023-07-22T12:49:44;1.98;;;1.50;;
27895;SDS011;15241;48.374;10.876;2023-07-22T12:55:03;2.08;;;1.80;;
27895;SDS011;15241;48.374;10.876;2023-07-22T13:00:21;2.17;;;1.72;;
27895;SDS011;15241;48.374;10.876;2023-07-22T13:05:39;1.67;;;1.50;;
27895;SDS011;15241;48.374;10.876;2023-07-22T13:10:56;2.27;;;1.57;;
27895;SDS011;15241;48.374;10.876;2023-07-22T13:16:14;3.40;;;1.82;;
27895;SDS011;15241;48.374;10.876;2023-07-22T13:21:31;2.00;;;1.80;;
27895;SDS011;15241;48.374;10.876;2023-07-22T13:26:48;1.75;;;1.50;;
27895;SDS011;15241;48.374;10.876;2023-07-22T13:32:07;1.80;;;1.67;;
27895;SDS011;15241;48.374;10.876;2023-07-22T13:37:25;1.60;;;1.37;;
27895;SDS011;15241;48.374;10.876;2023-07-22T13:42:43;3.25;;;1.37;;
27895;SDS011;15241;48.374;10.876;2023-07-22T13:48:00;2.47;;;1.65;;
27895;SDS011;15241;48.374;10.876;2023-07-22T13:53:17;1.98;;;1.70;;
27895;SDS011;15241;48.374;10.876;2023-07-22T13:58:35;2.75;;;1.70;;
27895;SDS011;15241;48.374;10.876;2023-07-22T14:03:52;2.65;;;1.87;;
27895;SDS011;15241;48.374;10.876;2023-07-22T14:09:10;1.70;;;1.60;;
27895;SDS011;15241;48.374;10.876;2023-07-22T14:14:27;2.33;;;1.95;;
27895;SDS011;15241;48.374;10.876;2023-07-22T14:19:45;3.10;;;1.90;;
27895;SDS011;15241;48.374;10.876;2023-07-22T14:25:03;3.42;;;2.02;;
27895;SDS011;15241;48.374;10.876;2023-07-22T14:30:22;2.22;;;2.02;;
27895;SDS011;15241;48.374;10.876;2023-07-22T14:35:39;3.95;;;1.85;;
27895;SDS011;15241;48.374;10.876;2023-07-22T14:40:57;1.85;;;1.57;;
27895;SDS011;15241;48.374;10.876;2023-07-22T14:46:15;3.00;;;1.87;;
27895;SDS011;15241;48.374;10.876;2023-07-22T14:51:32;2.17;;;1.75;;
27895;SDS011;15241;48.374;10.876;2023-07-22T14:56:50;2.30;;;2.10;;
27895;SDS011;15241;48.374;10.876;2023-07-22T15:02:08;4.37;;;2.00;;
27895;SDS011;15241;48.374;10.876;2023-07-22T15:07:25;2.02;;;1.82;;
27895;SDS011;15241;48.374;10.876;2023-07-22T15:12:43;3.98;;;2.35;;
27895;SDS011;15241;48.374;10.876;2023-07-22T15:18:00;2.52;;;2.30;;
27895;SDS011;15241;48.374;10.876;2023-07-22T15:23:18;3.20;;;1.95;;
27895;SDS011;15241;48.374;10.876;2023-07-22T15:28:35;4.40;;;2.02;;
27895;SDS011;15241;48.374;10.876;2023-07-22T15:33:52;2.42;;;2.17;;
27895;SDS011;15241;48.374;10.876;2023-07-22T15:39:10;2.30;;;2.10;;
27895;SDS011;15241;48.374;10.876;2023-07-22T15:44:27;2.65;;;2.25;;
27895;SDS011;15241;48.374;10.876;2023-07-22T15:49:45;3.33;;;2.50;;
27895;SDS011;15241;48.374;10.876;2023-07-22T15:55:03;2.52;;;2.30;;
27895;SDS011;15241;48.374;10.876;2023-07-22T16:00:22;2.67;;;1.77;;
27895;SDS011;15241;48.374;10.876;2023-07-22T16:05:40;3.98;;;2.20;;
27895;SDS011;15241;48.374;10.876;2023-07-22T16:10:58;2.52;;;2.33;;
27895;SDS011;15241;48.374;10.876;2023-07-22T16:16:15;2.98;;;2.30;;
27895;SDS011;15241;48.374;10.876;2023-07-22T16:21:32;2.58;;;2.37;;
27895;SDS011;15241;48.374;10.876;2023-07-22T16:26:50;5.53;;;2.50;;
27895;SDS011;15241;48.374;10.876;2023-07-22T16:32:08;3.62;;;2.40;;
27895;SDS011;15241;48.374;10.876;2023-07-22T16:37:26;3.92;;;3.27;;
27895;SDS011;15241;48.374;10.876;2023-07-22T16:42:44;3.08;;;2.52;;
27895;SDS011;15241;48.374;10.876;2023-07-22T16:48:01;2.98;;;2.62;;
27895;SDS011;15241;48.374;10.876;2023-07-22T16:53:19;3.30;;;2.83;;
27895;SDS011;15241;48.374;10.876;2023-07-22T16:58:37;6.10;;;2.70;;
27895;SDS011;15241;48.374;10.876;2023-07-22T17:03:54;4.00;;;2.80;;
27895;SDS011;15241;48.374;10.876;2023-07-22T17:09:11;8.18;;;7.42;;
27895;SDS011;15241;48.374;10.876;2023-07-22T17:14:29;4.80;;;3.58;;
27895;SDS011;15241;48.374;10.876;2023-07-22T17:19:47;3.67;;;3.30;;
27895;SDS011;15241;48.374;10.876;2023-07-22T17:25:05;5.45;;;3.40;;
27895;SDS011;15241;48.374;10.876;2023-07-22T17:30:23;5.03;;;3.22;;
27895;SDS011;15241;48.374;10.876;2023-07-22T17:35:40;4.53;;;2.83;;
27895;SDS011;15241;48.374;10.876;2023-07-22T17:40:59;4.33;;;3.30;;
27895;SDS011;15241;48.374;10.876;2023-07-22T17:46:16;2.77;;;2.58;;
27895;SDS011;15241;48.374;10.876;2023-07-22T17:51:34;7.20;;;5.75;;
27895;SDS011;15241;48.374;10.876;2023-07-22T17:56:51;3.45;;;2.98;;
27895;SDS011;15241;48.374;10.876;2023-07-22T18:02:09;4.03;;;3.22;;
27895;SDS011;15241;48.374;10.876;2023-07-22T18:07:26;4.15;;;3.12;;
27895;SDS011;15241;48.374;10.876;2023-07-22T18:12:43;3.65;;;2.90;;
27895;SDS011;15241;48.374;10.876;2023-07-22T18:18:01;3.80;;;3.05;;
27895;SDS011;15241;48.374;10.876;2023-07-22T18:23:19;4.03;;;3.33;;
27895;SDS011;15241;48.374;10.876;2023-07-22T18:28:36;4.60;;;3.12;;
27895;SDS011;15241;48.374;10.876;2023-07-22T18:33:53;4.17;;;3.02;;
27895;SDS011;15241;48.374;10.876;2023-07-22T18:39:11;3.87;;;2.87;;
27895;SDS011;15241;48.374;10.876;2023-07-22T18:44:28;3.90;;;3.33;;
27895;SDS011;15241;48.374;10.876;2023-07-22T18:49:46;3.05;;;2.72;;
27895;SDS011;15241;48.374;10.876;2023-07-22T18:55:04;4.70;;;2.70;;
27895;SDS011;15241;48.374;10.876;2023-07-22T19:00:23;4.72;;;2.85;;
27895;SDS011;15241;48.374;10.876;2023-07-22T19:05:40;6.65;;;3.02;;
27895;SDS011;15241;48.374;10.876;2023-07-22T19:10:57;6.30;;;4.33;;
27895;SDS011;15241;48.374;10.876;2023-07-22T19:16:15;3.12;;;2.80;;
27895;SDS011;15241;48.374;10.876;2023-07-22T19:21:33;4.15;;;3.25;;
27895;SDS011;15241;48.374;10.876;2023-07-22T19:26:50;4.42;;;2.80;;
27895;SDS011;15241;48.374;10.876;2023-07-22T19:32:08;6.67;;;4.25;;
27895;SDS011;15241;48.374;10.876;2023-07-22T19:37:26;5.25;;;3.12;;
27895;SDS011;15241;48.374;10.876;2023-07-22T19:42:44;6.50;;;2.85;;
27895;SDS011;15241;48.374;10.876;2023-07-22T19:48:02;5.08;;;3.27;;
27895;SDS011;15241;48.374;10.876;2023-07-22T19:53:20;7.87;;;3.65;;
27895;SDS011;15241;48.374;10.876;2023-07-22T19:58:38;6.47;;;3.35;;
27895;SDS011;15241;48.374;10.876;2023-07-22T20:03:56;4.92;;;2.87;;
27895;SDS011;15241;48.374;10.876;2023-07-22T20:09:14;7.08;;;2.67;;
27895;SDS011;15241;48.374;10.876;2023-07-22T20:14:31;5.10;;;2.70;;
27895;SDS011;15241;48.374;10.876;2023-07-22T20:19:48;4.65;;;3.52;;
27895;SDS011;15241;48.374;10.876;2023-07-22T20:25:06;5.08;;;3.20;;
27895;SDS011;15241;48.374;10.876;2023-07-22T20:30:25;6.12;;;2.80;;
27895;SDS011;15241;48.374;10.876;2023-07-22T20:35:43;6.65;;;3.42;;
27895;SDS011;15241;48.374;10.876;2023-07-22T20:41:02;5.80;;;3.33;;
27895;SDS011;15241;48.374;10.876;2023-07-22T20:46:20;4.25;;;3.33;;
27895;SDS011;15241;48.374;10.876;2023-07-22T20:51:38;3.95;;;3.08;;
27895;SDS011;15241;48.374;10.876;2023-07-22T20:56:55;6.47;;;3.58;;
27895;SDS011;15241;48.374;10.876;2023-07-22T21:02:13;4.10;;;3.10;;
27895;SDS011;15241;48.374;10.876;2023-07-22T21:07:30;5.58;;;3.80;;
27895;SDS011;15241;48.374;10.876;2023-07-22T21:12:48;7.60;;;4.80;;
27895;SDS011;15241;48.374;10.876;2023-07-22T21:18:06;6.47;;;4.50;;
27895;SDS011;15241;48.374;10.876;2023-07-22T21:23:24;9.63;;;5.75;;
27895;SDS011;15241;48.374;10.876;2023-07-22T21:28:41;8.03;;;5.30;;
27895;SDS011;15241;48.374;10.876;2023-07-22T21:34:00;8.28;;;4.80;;
27895;SDS011;15241;48.374;10.876;2023-07-22T21:39:17;7.25;;;5.05;;
27895;SDS011;15241;48.374;10.876;2023-07-22T21:44:35;8.40;;;4.28;;
27895;SDS011;15241;48.374;10.876;2023-07-22T21:49:53;7.65;;;4.10;;
27895;SDS011;15241;48.374;10.876;2023-07-22T21:55:11;8.68;;;4.33;;
27895;SDS011;15241;48.374;10.876;2023-07-22T22:00:28;5.17;;;3.62;;
27895;SDS011;15241;48.374;10.876;2023-07-22T22:05:46;4.97;;;3.70;;
27895;SDS011;15241;48.374;10.876;2023-07-22T22:11:04;7.20;;;3.20;;
27895;SDS011;15241;48.374;10.876;2023-07-22T22:16:22;5.05;;;3.58;;
27895;SDS011;15241;48.374;10.876;2023-07-22T22:21:39;5.00;;;3.47;;
27895;SDS011;15241;48.374;10.876;2023-07-22T22:26:56;7.42;;;3.62;;
27895;SDS011;15241;48.374;10.876;2023-07-22T22:32:14;5.80;;;3.77;;
27895;SDS011;15241;48.374;10.876;2023-07-22T22:37:32;9.00;;;5.60;;
27895;SDS011;15241;48.374;10.876;2023-07-22T22:42:49;10.18;;;5.37;;
27895;SDS011;15241;48.374;10.876;2023-07-22T22:48:06;5.40;;;3.50;;
27895;SDS011;15241;48.374;10.876;2023-07-22T22:53:24;4.40;;;3.15;;
27895;SDS011;15241;48.374;10.876;2023-07-22T22:58:41;5.20;;;3.05;;
27895;SDS011;15241;48.374;10.876;2023-07-22T23:03:59;5.65;;;4.05;;
27895;SDS011;15241;48.374;10.876;2023-07-22T23:09:16;5.10;;;3.25;;
27895;SDS011;15241;48.374;10.876;2023-07-22T23:14:34;4.20;;;3.25;;
27895;SDS011;15241;48.374;10.876;2023-07-22T23:19:51;4.12;;;3.62;;
27895;SDS011;15241;48.374;10.876;2023-07-22T23:25:11;5.47;;;3.87;;
27895;SDS011;15241;48.374;10.876;2023-07-22T23:30:28;7.12;;;3.58;;
27895;SDS011;15241;48.374;10.876;2023-07-22T23:35:45;7.12;;;3.40;;
27895;SDS011;15241;48.374;10.876;2023-07-22T23:41:07;6.92;;;3.25;;
27895;SDS011;15241;48.374;10.876;2023-07-22T23:46:25;5.17;;;3.75;;
27895;SDS011;15241;48.374;10.876;2023-07-22T23:51:42;3.83;;;3.22;;
27895;SDS011;15241;48.374;10.876;2023-07-22T23:57:00;6.45;;;3.52;;
